createdAt,value
2022-08-07T00:00:33.777Z,1.70
2022-08-07T00:03:36.843Z,1.77
2022-08-07T00:06:45.489Z,2.17
2022-08-07T00:10:17.787Z,2.30
2022-08-07T00:13:25.658Z,2.10
2022-08-07T00:19:34.279Z,2.30
2022-08-07T00:22:53.737Z,2.70
2022-08-07T00:26:00.283Z,2.10
2022-08-07T00:29:04.893Z,2.10
2022-08-07T00:32:08.282Z,2.15
2022-08-07T00:35:10.236Z,2.38
2022-08-07T00:38:13.083Z,2.53
2022-08-07T00:41:15.350Z,2.38
2022-08-07T00:44:17.572Z,2.50
2022-08-07T00:48:07.885Z,3.10
2022-08-07T00:50:50.619Z,3.67
2022-08-07T00:53:55.908Z,2.60
2022-08-07T00:56:58.384Z,2.70
2022-08-07T01:03:03.175Z,3.42
2022-08-07T01:06:06.119Z,3.60
2022-08-07T01:09:08.228Z,2.88
2022-08-07T01:12:30.160Z,2.70
2022-08-07T01:15:36.073Z,2.70
2022-08-07T01:18:56.690Z,3.22
2022-08-07T01:22:00.831Z,2.92
2022-08-07T01:25:53.885Z,2.67
2022-08-07T01:28:34.681Z,2.40
2022-08-07T01:34:49.284Z,2.55
2022-08-07T01:37:52.224Z,2.72
2022-08-07T01:41:02.146Z,2.40
2022-08-07T01:44:04.549Z,2.70
2022-08-07T01:48:16.599Z,3.40
2022-08-07T01:50:32.822Z,3.33
2022-08-07T01:54:09.046Z,3.38
2022-08-07T01:57:20.403Z,3.15
2022-08-07T02:00:31.231Z,2.72
2022-08-07T02:03:48.559Z,2.38
2022-08-07T02:06:52.314Z,2.53
2022-08-07T02:09:58.662Z,2.75
2022-08-07T02:13:04.687Z,3.08
2022-08-07T02:16:19.862Z,3.20
2022-08-07T02:20:04.797Z,2.42
2022-08-07T02:23:00.102Z,2.85
2022-08-07T02:26:30.605Z,4.10
2022-08-07T02:29:28.114Z,3.13
2022-08-07T02:32:36.129Z,2.10
2022-08-07T02:36:29.028Z,2.30
2022-08-07T02:39:17.458Z,2.20
2022-08-07T02:42:34.151Z,2.38
2022-08-07T02:46:00.796Z,2.17
2022-08-07T02:49:03.327Z,2.25
2022-08-07T02:52:12.889Z,2.13
2022-08-07T02:55:28.483Z,2.00
2022-08-07T02:58:48.327Z,2.92
2022-08-07T03:01:52.255Z,2.00
2022-08-07T03:05:00.540Z,2.50
2022-08-07T03:08:10.215Z,2.13
2022-08-07T03:11:17.756Z,2.10
2022-08-07T03:14:22.402Z,2.30
2022-08-07T03:17:25.597Z,2.00
2022-08-07T03:20:29.792Z,2.40
2022-08-07T03:23:33.845Z,2.33
2022-08-07T03:27:00.744Z,2.15
2022-08-07T03:30:11.262Z,2.35
2022-08-07T03:33:18.366Z,2.40
2022-08-07T03:36:25.942Z,2.28
2022-08-07T03:39:46.240Z,2.10
2022-08-07T03:42:56.580Z,2.40
2022-08-07T03:46:00.241Z,2.00
2022-08-07T03:49:05.271Z,2.72
2022-08-07T03:52:22.270Z,2.42
2022-08-07T03:55:57.948Z,2.33
2022-08-07T03:59:08.494Z,2.47
2022-08-07T04:05:24.049Z,2.40
2022-08-07T04:08:42.744Z,2.55
2022-08-07T04:12:21.115Z,2.22
2022-08-07T04:15:12.321Z,1.90
2022-08-07T04:18:57.946Z,2.08
2022-08-07T04:21:39.876Z,2.33
2022-08-07T04:25:02.335Z,2.53
2022-08-07T04:28:08.531Z,2.40
2022-08-07T04:31:20.135Z,2.38
2022-08-07T04:34:34.147Z,2.78
2022-08-07T04:38:01.007Z,2.90
2022-08-07T04:41:04.835Z,2.03
2022-08-07T04:44:18.621Z,1.95
2022-08-07T04:47:57.329Z,2.20
2022-08-07T04:51:15.476Z,2.20
2022-08-07T04:54:31.820Z,2.00
2022-08-07T04:58:16.701Z,2.38
2022-08-07T05:01:31.903Z,2.10
2022-08-07T05:04:50.387Z,2.30
2022-08-07T05:08:10.097Z,2.40
2022-08-07T05:11:27.553Z,2.00
2022-08-07T05:15:03.440Z,1.98
2022-08-07T05:18:32.074Z,2.17
2022-08-07T05:22:00.611Z,2.05
2022-08-07T05:25:00.606Z,2.15
2022-08-07T05:28:20.352Z,2.90
2022-08-07T05:31:34.993Z,1.80
2022-08-07T05:34:43.790Z,2.00
2022-08-07T05:37:46.852Z,1.88
2022-08-07T05:41:13.979Z,1.63
2022-08-07T05:44:29.134Z,1.90
2022-08-07T05:47:38.200Z,1.80
2022-08-07T05:50:59.849Z,2.05
2022-08-07T05:54:13.063Z,1.73
2022-08-07T05:57:30.508Z,1.90
2022-08-07T06:00:41.171Z,1.77
2022-08-07T06:03:58.623Z,1.98
2022-08-07T06:07:06.136Z,1.88
2022-08-07T06:10:15.285Z,2.00
2022-08-07T06:13:31.546Z,2.03
2022-08-07T06:16:50.185Z,1.92
2022-08-07T06:20:04.151Z,2.03
2022-08-07T06:23:25.169Z,1.95
2022-08-07T06:26:31.880Z,1.90
2022-08-07T06:29:34.987Z,2.00
2022-08-07T06:32:42.274Z,2.13
2022-08-07T06:35:48.176Z,1.95
2022-08-07T06:40:15.906Z,2.00
2022-08-07T06:42:37.582Z,1.85
2022-08-07T06:46:00.985Z,2.10
2022-08-07T06:49:04.754Z,1.85
2022-08-07T06:52:11.723Z,1.90
2022-08-07T06:55:34.547Z,2.00
2022-08-07T07:00:14.209Z,1.80
2022-08-07T07:02:48.152Z,1.65
2022-08-07T07:06:04.150Z,1.80
2022-08-07T07:09:24.936Z,1.80
2022-08-07T07:13:02.499Z,1.67
2022-08-07T07:16:09.733Z,1.80
2022-08-07T07:19:55.502Z,2.00
2022-08-07T07:24:08.191Z,2.20
2022-08-07T07:26:33.188Z,2.10
2022-08-07T07:29:57.029Z,1.92
2022-08-07T07:32:57.034Z,1.90
2022-08-07T07:36:12.701Z,1.70
2022-08-07T07:39:20.776Z,1.42
2022-08-07T07:42:32.890Z,1.40
2022-08-07T07:46:38.139Z,3.30
2022-08-07T07:49:09.185Z,1.50
2022-08-07T07:52:25.265Z,1.80
2022-08-07T07:55:37.317Z,2.00
2022-08-07T07:58:41.786Z,1.60
2022-08-07T08:02:03.564Z,1.60
2022-08-07T08:05:14.468Z,1.75
2022-08-07T08:08:34.236Z,1.70
2022-08-07T08:11:59.351Z,1.60
2022-08-07T08:15:01.690Z,1.65
2022-08-07T08:18:17.287Z,1.30
2022-08-07T08:22:00.623Z,1.27
2022-08-07T08:25:41.712Z,1.45
2022-08-07T08:28:46.189Z,1.60
2022-08-07T08:32:04.720Z,1.40
2022-08-07T08:35:19.079Z,1.35
2022-08-07T08:38:29.232Z,1.30
2022-08-07T08:41:57.170Z,2.28
2022-08-07T08:45:42.059Z,1.20
2022-08-07T08:52:25.295Z,1.27
2022-08-07T08:55:55.063Z,1.73
2022-08-07T08:59:54.424Z,1.20
2022-08-07T09:03:49.739Z,1.38
2022-08-07T09:07:14.798Z,1.27
2022-08-07T09:10:55.906Z,1.10
2022-08-07T09:14:16.522Z,1.33
2022-08-07T09:18:10.002Z,1.20
2022-08-07T09:21:57.786Z,1.30
2022-08-07T09:25:17.328Z,1.35
2022-08-07T09:30:01.528Z,1.10
2022-08-07T09:32:02.586Z,1.40
2022-08-07T09:36:04.846Z,1.40
2022-08-07T09:39:54.833Z,1.20
2022-08-07T09:43:18.007Z,1.00
2022-08-07T09:47:50.209Z,1.30
2022-08-07T09:50:19.652Z,1.20
2022-08-07T09:53:24.928Z,1.13
2022-08-07T09:56:46.514Z,1.80
2022-08-07T10:04:06.291Z,1.20
2022-08-07T10:07:31.739Z,1.23
2022-08-07T10:12:01.886Z,1.65
2022-08-07T10:15:44.198Z,1.17
2022-08-07T10:19:19.793Z,1.00
2022-08-07T10:22:33.653Z,1.30
2022-08-07T10:25:44.429Z,1.05
2022-08-07T10:29:17.988Z,1.10
2022-08-07T10:32:59.582Z,1.20
2022-08-07T10:36:29.233Z,1.20
2022-08-07T10:40:06.055Z,1.23
2022-08-07T10:43:43.290Z,2.17
2022-08-07T10:47:11.926Z,1.10
2022-08-07T10:50:34.220Z,1.10
2022-08-07T10:54:06.948Z,1.13
2022-08-07T10:57:51.552Z,1.00
2022-08-07T11:01:15.307Z,1.20
2022-08-07T11:04:37.735Z,1.10
2022-08-07T11:08:02.674Z,1.20
2022-08-07T11:11:20.356Z,1.40
2022-08-07T11:14:43.469Z,1.30
2022-08-07T11:17:54.656Z,1.08
2022-08-07T11:20:56.461Z,1.30
2022-08-07T11:24:08.467Z,2.50
2022-08-07T11:27:21.408Z,1.30
2022-08-07T11:31:08.617Z,1.00
2022-08-07T11:34:18.490Z,1.40
2022-08-07T11:38:10.467Z,4.78
2022-08-07T11:41:18.304Z,7.30
2022-08-07T11:44:52.720Z,7.47
2022-08-07T11:48:30.193Z,4.00
2022-08-07T11:51:48.821Z,1.55
2022-08-07T11:55:19.109Z,1.30
2022-08-07T11:58:57.793Z,5.55
2022-08-07T12:02:20.977Z,4.55
2022-08-07T12:06:39.716Z,1.38
2022-08-07T12:10:02.162Z,1.30
2022-08-07T12:13:36.697Z,1.40
2022-08-07T12:16:53.804Z,1.38
2022-08-07T12:20:10.318Z,2.20
2022-08-07T12:24:05.590Z,2.08
2022-08-07T12:27:16.302Z,1.65
2022-08-07T12:30:23.484Z,1.10
2022-08-07T12:33:55.878Z,1.10
2022-08-07T12:36:57.104Z,1.10
2022-08-07T12:40:02.969Z,1.10
2022-08-07T12:43:09.453Z,1.33
2022-08-07T12:46:37.547Z,1.10
2022-08-07T12:50:04.506Z,1.08
2022-08-07T12:53:29.010Z,2.20
2022-08-07T12:56:55.623Z,1.30
2022-08-07T13:00:16.442Z,3.37
2022-08-07T13:04:02.982Z,2.20
2022-08-07T13:08:14.030Z,1.58
2022-08-07T13:11:22.985Z,1.50
2022-08-07T13:15:06.798Z,3.67
2022-08-07T13:18:26.762Z,6.65
2022-08-07T13:25:24.295Z,5.35
2022-08-07T13:28:50.114Z,1.60
2022-08-07T13:32:31.926Z,1.48
2022-08-07T13:36:00.787Z,1.50
2022-08-07T13:40:33.990Z,2.10
2022-08-07T13:43:11.922Z,3.70
2022-08-07T13:46:25.609Z,2.05
2022-08-07T13:50:33.176Z,1.38
2022-08-07T13:53:03.094Z,1.80
2022-08-07T13:56:06.590Z,2.25
2022-08-07T13:59:21.639Z,1.90
2022-08-07T14:02:29.774Z,1.33
2022-08-07T14:05:44.030Z,3.10
2022-08-07T14:08:53.837Z,2.83
2022-08-07T14:12:01.062Z,3.42
2022-08-07T14:15:16.629Z,1.63
2022-08-07T14:18:39.048Z,1.63
2022-08-07T14:22:02.318Z,1.40
2022-08-07T14:25:13.230Z,1.38
2022-08-07T14:28:18.360Z,1.42
2022-08-07T14:31:25.071Z,1.83
2022-08-07T14:34:47.224Z,1.42
2022-08-07T14:38:03.553Z,1.60
2022-08-07T14:41:14.733Z,1.17
2022-08-07T14:44:20.157Z,1.33
2022-08-07T14:47:31.026Z,1.77
2022-08-07T14:50:41.500Z,1.70
2022-08-07T14:54:06.596Z,1.40
2022-08-07T14:57:19.177Z,2.97
2022-08-07T15:00:39.786Z,2.05
2022-08-07T15:03:51.696Z,3.40
2022-08-07T15:06:57.122Z,3.15
2022-08-07T15:10:01.986Z,2.40
2022-08-07T15:13:20.186Z,1.63
2022-08-07T15:16:33.468Z,2.20
2022-08-07T15:26:33.605Z,13.55
2022-08-07T15:30:06.816Z,17.70
2022-08-07T15:33:19.678Z,4.85
2022-08-07T15:37:04.132Z,3.40
2022-08-07T15:39:57.583Z,2.50
2022-08-07T15:43:53.153Z,2.55
2022-08-07T15:46:51.885Z,2.15
2022-08-07T15:53:52.091Z,2.70
2022-08-07T15:56:59.255Z,4.22
2022-08-07T16:00:06.403Z,2.92
2022-08-07T16:03:20.603Z,2.15
2022-08-07T16:06:36.297Z,1.92
2022-08-07T16:09:54.013Z,2.03
2022-08-07T16:13:58.064Z,2.25
2022-08-07T16:17:15.027Z,7.07
2022-08-07T16:20:41.913Z,12.70
2022-08-07T16:24:34.869Z,8.80
2022-08-07T16:28:01.669Z,4.50
2022-08-07T16:31:51.197Z,7.53
2022-08-07T16:35:51.661Z,7.72
2022-08-07T16:39:01.112Z,8.63
2022-08-07T16:42:03.700Z,11.50
2022-08-07T16:46:21.425Z,8.88
2022-08-07T16:50:28.197Z,5.88
2022-08-07T16:53:20.720Z,5.85
2022-08-07T16:56:53.491Z,8.32
2022-08-07T17:00:30.128Z,8.05
2022-08-07T17:04:12.504Z,9.32
2022-08-07T17:07:55.214Z,7.88
2022-08-07T17:11:06.863Z,10.63
2022-08-07T17:14:19.640Z,6.03
2022-08-07T17:17:47.777Z,4.45
2022-08-07T17:20:54.751Z,4.40
2022-08-07T17:24:23.790Z,3.35
2022-08-07T17:27:53.744Z,10.18
2022-08-07T17:31:24.276Z,9.30
2022-08-07T17:35:02.875Z,9.20
2022-08-07T17:38:12.074Z,5.70
2022-08-07T17:42:01.663Z,6.65
2022-08-07T17:45:17.853Z,5.20
2022-08-07T17:48:33.511Z,4.10
2022-08-07T17:51:49.286Z,4.22
2022-08-07T17:55:54.951Z,5.47
2022-08-07T17:58:57.299Z,4.68
2022-08-07T18:02:15.191Z,8.55
2022-08-07T18:05:23.845Z,6.47
2022-08-07T18:09:05.381Z,6.13
2022-08-07T18:12:28.553Z,4.93
2022-08-07T18:15:43.891Z,3.17
2022-08-07T18:21:12.328Z,2.92
2022-08-07T18:22:47.474Z,7.60
2022-08-07T18:26:01.364Z,6.13
2022-08-07T18:30:04.208Z,5.95
2022-08-07T18:33:16.708Z,4.90
2022-08-07T18:36:32.992Z,3.53
2022-08-07T18:40:08.308Z,3.00
2022-08-07T18:43:36.902Z,3.97
2022-08-07T18:47:22.535Z,4.15
2022-08-07T18:50:46.136Z,6.95
2022-08-07T18:54:30.953Z,8.38
2022-08-07T18:57:44.554Z,7.95
2022-08-07T19:02:19.069Z,6.15
2022-08-07T19:04:54.924Z,6.53
2022-08-07T19:08:11.483Z,5.93
2022-08-07T19:11:35.852Z,8.95
2022-08-07T19:16:03.515Z,6.50
2022-08-07T19:18:48.059Z,10.15
2022-08-07T19:22:45.064Z,17.17
2022-08-07T19:26:22.682Z,29.75
2022-08-07T19:31:04.038Z,31.38
2022-08-07T19:32:45.277Z,50.40
2022-08-07T19:36:00.299Z,36.90
2022-08-07T19:39:09.279Z,51.72
2022-08-07T19:42:24.670Z,40.85
2022-08-07T19:46:05.694Z,32.65
2022-08-07T19:49:13.075Z,20.67
2022-08-07T19:52:24.970Z,20.27
2022-08-07T19:55:58.113Z,13.18
2022-08-07T19:58:54.822Z,19.02
2022-08-07T20:01:59.938Z,28.15
2022-08-07T20:05:07.678Z,25.45
2022-08-07T20:08:21.012Z,15.95
2022-08-07T20:12:01.593Z,18.88
2022-08-07T20:14:54.155Z,17.15
2022-08-07T20:18:04.477Z,15.27
2022-08-07T20:21:21.045Z,3.50
2022-08-07T20:24:31.549Z,6.25
2022-08-07T20:27:46.043Z,11.80
2022-08-07T20:30:50.300Z,189.10
2022-08-07T20:33:56.799Z,220.10
2022-08-07T20:36:59.580Z,63.85
2022-08-07T20:40:32.383Z,42.92
2022-08-07T20:43:29.768Z,21.88
2022-08-07T20:46:44.261Z,15.13
2022-08-07T20:49:58.114Z,6.78
2022-08-07T20:53:03.711Z,6.85
2022-08-07T20:56:09.537Z,100.43
2022-08-07T20:59:27.236Z,42.95
2022-08-07T21:03:03.761Z,153.02
2022-08-07T21:06:21.823Z,206.07
2022-08-07T21:09:51.874Z,169.90
2022-08-07T21:12:58.206Z,78.65
2022-08-07T21:16:03.638Z,31.27
2022-08-07T21:19:14.042Z,70.88
2022-08-07T21:22:19.150Z,25.70
2022-08-07T21:25:45.576Z,84.38
2022-08-07T21:29:12.950Z,166.93
2022-08-07T21:32:44.193Z,62.83
2022-08-07T21:36:36.029Z,352.60
2022-08-07T21:39:51.518Z,234.85
2022-08-07T21:42:59.752Z,215.50
2022-08-07T21:46:25.042Z,165.82
2022-08-07T21:50:00.823Z,124.23
2022-08-07T21:53:20.777Z,42.45
2022-08-07T21:56:49.188Z,208.30
2022-08-07T22:00:22.315Z,169.52
2022-08-07T22:03:30.929Z,214.52
2022-08-07T22:06:44.990Z,188.70
2022-08-07T22:09:53.884Z,87.38
2022-08-07T22:13:09.231Z,61.20
2022-08-07T22:16:44.689Z,78.93
2022-08-07T22:20:23.453Z,513.63
2022-08-07T22:23:40.507Z,261.45
2022-08-07T22:26:49.117Z,78.97
2022-08-07T22:30:14.728Z,47.35
2022-08-07T22:33:18.557Z,19.20
2022-08-07T22:36:52.717Z,21.90
2022-08-07T22:39:54.993Z,21.77
2022-08-07T22:43:31.493Z,14.02
2022-08-07T22:47:08.572Z,12.68
2022-08-07T22:50:33.490Z,10.10
2022-08-07T22:54:05.676Z,8.27
2022-08-07T22:57:25.985Z,7.25
2022-08-07T23:00:34.947Z,6.07
2022-08-07T23:03:57.578Z,5.75
2022-08-07T23:07:42.233Z,4.95
2022-08-07T23:10:56.628Z,4.35
2022-08-07T23:14:24.786Z,3.90
2022-08-07T23:17:59.378Z,3.53
2022-08-07T23:21:03.940Z,3.65
2022-08-07T23:24:17.010Z,2.90
2022-08-07T23:27:37.732Z,3.97
2022-08-07T23:32:49.032Z,3.00
2022-08-07T23:35:25.769Z,3.20
2022-08-07T23:39:08.571Z,3.17
2022-08-07T23:46:03.707Z,3.80
2022-08-07T23:49:50.546Z,3.28
2022-08-07T23:53:49.986Z,2.83
2022-08-07T23:56:53.896Z,2.65
